sensor_id;sensor_type;location;lat;lon;timestamp;P1;durP1;ratioP1;P2;durP2;ratioP2
2396;SDS011;1209;48.410;9.054;2022-11-20T00:01:47;4.27;;;2.90;;
2396;SDS011;1209;48.410;9.054;2022-11-20T00:04:12;3.87;;;3.40;;
2396;SDS011;1209;48.410;9.054;2022-11-20T00:06:38;5.13;;;2.80;;
2396;SDS011;1209;48.410;9.054;2022-11-20T00:09:03;3.73;;;3.00;;
2396;SDS011;1209;48.410;9.054;2022-11-20T00:11:30;2.97;;;2.78;;
2396;SDS011;1209;48.410;9.054;2022-11-20T00:13:57;2.55;;;2.35;;
2396;SDS011;1209;48.410;9.054;2022-11-20T00:16:25;4.32;;;3.40;;
2396;SDS011;1209;48.410;9.054;2022-11-20T00:18:52;5.83;;;3.30;;
2396;SDS011;1209;48.410;9.054;2022-11-20T00:21:19;5.75;;;4.05;;
2396;SDS011;1209;48.410;9.054;2022-11-20T00:23:49;4.75;;;3.15;;
2396;SDS011;1209;48.410;9.054;2022-11-20T00:26:16;6.18;;;3.85;;
2396;SDS011;1209;48.410;9.054;2022-11-20T00:28:43;5.28;;;3.83;;
2396;SDS011;1209;48.410;9.054;2022-11-20T00:31:14;3.63;;;3.33;;
2396;SDS011;1209;48.410;9.054;2022-11-20T00:33:40;3.85;;;2.42;;
2396;SDS011;1209;48.410;9.054;2022-11-20T00:36:11;3.75;;;3.10;;
2396;SDS011;1209;48.410;9.054;2022-11-20T00:38:40;4.80;;;3.33;;
2396;SDS011;1209;48.410;9.054;2022-11-20T00:41:07;2.80;;;2.60;;
2396;SDS011;1209;48.410;9.054;2022-11-20T00:43:34;6.50;;;3.38;;
2396;SDS011;1209;48.410;9.054;2022-11-20T00:46:01;3.23;;;2.93;;
2396;SDS011;1209;48.410;9.054;2022-11-20T00:48:30;4.72;;;3.33;;
2396;SDS011;1209;48.410;9.054;2022-11-20T00:50:56;4.37;;;3.30;;
2396;SDS011;1209;48.410;9.054;2022-11-20T00:53:22;3.93;;;3.10;;
2396;SDS011;1209;48.410;9.054;2022-11-20T00:55:59;3.60;;;3.30;;
2396;SDS011;1209;48.410;9.054;2022-11-20T00:58:30;4.72;;;3.80;;
2396;SDS011;1209;48.410;9.054;2022-11-20T01:01:01;2.83;;;2.50;;
2396;SDS011;1209;48.410;9.054;2022-11-20T01:03:29;3.60;;;3.30;;
2396;SDS011;1209;48.410;9.054;2022-11-20T01:05:59;4.28;;;2.80;;
2396;SDS011;1209;48.410;9.054;2022-11-20T01:08:28;3.35;;;3.05;;
2396;SDS011;1209;48.410;9.054;2022-11-20T01:10:58;3.42;;;3.10;;
2396;SDS011;1209;48.410;9.054;2022-11-20T01:13:27;3.00;;;2.70;;
2396;SDS011;1209;48.410;9.054;2022-11-20T01:18:41;3.00;;;2.58;;
2396;SDS011;1209;48.410;9.054;2022-11-20T01:21:08;3.60;;;3.10;;
2396;SDS011;1209;48.410;9.054;2022-11-20T01:23:39;3.33;;;2.67;;
2396;SDS011;1209;48.410;9.054;2022-11-20T01:26:07;2.70;;;2.50;;
2396;SDS011;1209;48.410;9.054;2022-11-20T01:28:37;3.03;;;2.83;;
2396;SDS011;1209;48.410;9.054;2022-11-20T01:31:20;3.50;;;3.20;;
2396;SDS011;1209;48.410;9.054;2022-11-20T01:33:48;3.22;;;3.00;;
2396;SDS011;1209;48.410;9.054;2022-11-20T01:36:16;4.17;;;3.17;;
2396;SDS011;1209;48.410;9.054;2022-11-20T01:38:43;4.10;;;3.25;;
2396;SDS011;1209;48.410;9.054;2022-11-20T01:41:09;4.30;;;3.03;;
2396;SDS011;1209;48.410;9.054;2022-11-20T01:43:35;2.75;;;2.55;;
2396;SDS011;1209;48.410;9.054;2022-11-20T01:46:05;3.27;;;2.63;;
2396;SDS011;1209;48.410;9.054;2022-11-20T01:48:36;6.97;;;3.85;;
2396;SDS011;1209;48.410;9.054;2022-11-20T01:51:06;2.90;;;2.67;;
2396;SDS011;1209;48.410;9.054;2022-11-20T01:53:37;3.10;;;2.77;;
2396;SDS011;1209;48.410;9.054;2022-11-20T01:56:05;2.90;;;2.50;;
2396;SDS011;1209;48.410;9.054;2022-11-20T01:58:32;4.93;;;3.07;;
2396;SDS011;1209;48.410;9.054;2022-11-20T02:01:00;2.78;;;2.40;;
2396;SDS011;1209;48.410;9.054;2022-11-20T02:03:26;3.37;;;3.07;;
2396;SDS011;1209;48.410;9.054;2022-11-20T02:05:57;2.25;;;2.03;;
2396;SDS011;1209;48.410;9.054;2022-11-20T02:08:24;3.38;;;2.40;;
2396;SDS011;1209;48.410;9.054;2022-11-20T02:10:49;2.63;;;2.43;;
2396;SDS011;1209;48.410;9.054;2022-11-20T02:13:15;2.43;;;2.23;;
2396;SDS011;1209;48.410;9.054;2022-11-20T02:15:59;3.72;;;2.35;;
2396;SDS011;1209;48.410;9.054;2022-11-20T02:18:25;3.10;;;2.47;;
2396;SDS011;1209;48.410;9.054;2022-11-20T02:20:53;5.03;;;2.80;;
2396;SDS011;1209;48.410;9.054;2022-11-20T02:23:36;2.45;;;2.25;;
2396;SDS011;1209;48.410;9.054;2022-11-20T02:26:05;2.70;;;2.40;;
2396;SDS011;1209;48.410;9.054;2022-11-20T02:28:34;2.30;;;2.10;;
2396;SDS011;1209;48.410;9.054;2022-11-20T02:31:00;2.70;;;2.03;;
2396;SDS011;1209;48.410;9.054;2022-11-20T02:33:25;2.07;;;1.90;;
2396;SDS011;1209;48.410;9.054;2022-11-20T02:35:51;1.60;;;1.50;;
2396;SDS011;1209;48.410;9.054;2022-11-20T02:38:16;1.93;;;1.83;;
2396;SDS011;1209;48.410;9.054;2022-11-20T02:40:42;3.00;;;2.33;;
2396;SDS011;1209;48.410;9.054;2022-11-20T02:43:08;1.90;;;1.80;;
2396;SDS011;1209;48.410;9.054;2022-11-20T02:45:34;3.20;;;2.40;;
2396;SDS011;1209;48.410;9.054;2022-11-20T02:48:00;3.00;;;2.30;;
2396;SDS011;1209;48.410;9.054;2022-11-20T02:50:25;2.13;;;2.03;;
2396;SDS011;1209;48.410;9.054;2022-11-20T02:52:51;3.27;;;1.80;;
2396;SDS011;1209;48.410;9.054;2022-11-20T02:55:16;2.30;;;2.03;;
2396;SDS011;1209;48.410;9.054;2022-11-20T02:57:41;2.13;;;1.80;;
2396;SDS011;1209;48.410;9.054;2022-11-20T03:00:07;1.60;;;1.50;;
2396;SDS011;1209;48.410;9.054;2022-11-20T03:02:33;2.20;;;2.00;;
2396;SDS011;1209;48.410;9.054;2022-11-20T03:04:58;2.17;;;2.00;;
2396;SDS011;1209;48.410;9.054;2022-11-20T03:07:24;1.87;;;1.70;;
2396;SDS011;1209;48.410;9.054;2022-11-20T03:09:49;7.50;;;2.00;;
2396;SDS011;1209;48.410;9.054;2022-11-20T03:12:16;2.60;;;1.80;;
2396;SDS011;1209;48.410;9.054;2022-11-20T03:14:41;1.55;;;1.50;;
2396;SDS011;1209;48.410;9.054;2022-11-20T03:17:07;1.73;;;1.57;;
2396;SDS011;1209;48.410;9.054;2022-11-20T03:19:32;1.70;;;1.40;;
2396;SDS011;1209;48.410;9.054;2022-11-20T03:21:59;2.40;;;1.70;;
2396;SDS011;1209;48.410;9.054;2022-11-20T03:24:25;2.10;;;2.00;;
2396;SDS011;1209;48.410;9.054;2022-11-20T03:26:50;2.10;;;1.60;;
2396;SDS011;1209;48.410;9.054;2022-11-20T03:29:16;1.80;;;1.70;;
2396;SDS011;1209;48.410;9.054;2022-11-20T03:31:41;1.40;;;1.40;;
2396;SDS011;1209;48.410;9.054;2022-11-20T03:34:07;1.77;;;1.67;;
2396;SDS011;1209;48.410;9.054;2022-11-20T03:36:33;1.25;;;1.25;;
2396;SDS011;1209;48.410;9.054;2022-11-20T03:38:59;1.70;;;1.60;;
2396;SDS011;1209;48.410;9.054;2022-11-20T03:41:25;1.60;;;1.47;;
2396;SDS011;1209;48.410;9.054;2022-11-20T03:43:53;1.65;;;1.50;;
2396;SDS011;1209;48.410;9.054;2022-11-20T03:46:22;1.70;;;1.30;;
2396;SDS011;1209;48.410;9.054;2022-11-20T03:48:48;1.50;;;1.50;;
2396;SDS011;1209;48.410;9.054;2022-11-20T03:51:14;1.53;;;1.50;;
2396;SDS011;1209;48.410;9.054;2022-11-20T03:53:40;1.48;;;1.38;;
2396;SDS011;1209;48.410;9.054;2022-11-20T03:56:07;1.48;;;1.38;;
2396;SDS011;1209;48.410;9.054;2022-11-20T03:58:34;1.80;;;1.70;;
2396;SDS011;1209;48.410;9.054;2022-11-20T04:01:12;1.50;;;1.40;;
2396;SDS011;1209;48.410;9.054;2022-11-20T04:03:43;1.50;;;1.40;;
2396;SDS011;1209;48.410;9.054;2022-11-20T04:06:19;2.53;;;1.45;;
2396;SDS011;1209;48.410;9.054;2022-11-20T04:08:46;2.15;;;1.25;;
2396;SDS011;1209;48.410;9.054;2022-11-20T04:11:16;1.50;;;1.40;;
2396;SDS011;1209;48.410;9.054;2022-11-20T04:13:45;1.50;;;1.40;;
2396;SDS011;1209;48.410;9.054;2022-11-20T04:16:13;1.48;;;1.48;;
2396;SDS011;1209;48.410;9.054;2022-11-20T04:18:39;1.53;;;1.43;;
2396;SDS011;1209;48.410;9.054;2022-11-20T04:21:04;1.70;;;1.60;;
2396;SDS011;1209;48.410;9.054;2022-11-20T04:23:30;1.20;;;1.20;;
2396;SDS011;1209;48.410;9.054;2022-11-20T04:26:00;4.00;;;1.77;;
2396;SDS011;1209;48.410;9.054;2022-11-20T04:28:27;1.55;;;1.45;;
2396;SDS011;1209;48.410;9.054;2022-11-20T04:30:52;1.30;;;1.20;;
2396;SDS011;1209;48.410;9.054;2022-11-20T04:33:17;1.60;;;1.50;;
2396;SDS011;1209;48.410;9.054;2022-11-20T04:35:43;1.80;;;1.70;;
2396;SDS011;1209;48.410;9.054;2022-11-20T04:38:12;1.58;;;1.45;;
2396;SDS011;1209;48.410;9.054;2022-11-20T04:40:37;1.70;;;1.57;;
2396;SDS011;1209;48.410;9.054;2022-11-20T04:43:02;1.80;;;1.70;;
2396;SDS011;1209;48.410;9.054;2022-11-20T04:45:28;1.90;;;1.60;;
2396;SDS011;1209;48.410;9.054;2022-11-20T04:47:53;1.70;;;1.60;;
2396;SDS011;1209;48.410;9.054;2022-11-20T04:50:18;2.30;;;2.10;;
2396;SDS011;1209;48.410;9.054;2022-11-20T04:52:44;1.63;;;1.53;;
2396;SDS011;1209;48.410;9.054;2022-11-20T04:55:09;2.23;;;2.07;;
2396;SDS011;1209;48.410;9.054;2022-11-20T04:57:34;4.90;;;1.80;;
2396;SDS011;1209;48.410;9.054;2022-11-20T05:00:00;1.97;;;1.87;;
2396;SDS011;1209;48.410;9.054;2022-11-20T05:02:25;2.10;;;1.63;;
2396;SDS011;1209;48.410;9.054;2022-11-20T05:04:50;1.57;;;1.43;;
2396;SDS011;1209;48.410;9.054;2022-11-20T05:07:15;1.60;;;1.50;;
2396;SDS011;1209;48.410;9.054;2022-11-20T05:09:41;1.50;;;1.40;;
2396;SDS011;1209;48.410;9.054;2022-11-20T05:12:07;2.00;;;1.90;;
2396;SDS011;1209;48.410;9.054;2022-11-20T05:14:33;1.67;;;1.58;;
2396;SDS011;1209;48.410;9.054;2022-11-20T05:16:59;2.27;;;2.10;;
2396;SDS011;1209;48.410;9.054;2022-11-20T05:19:24;2.10;;;2.00;;
2396;SDS011;1209;48.410;9.054;2022-11-20T05:21:49;1.80;;;1.70;;
2396;SDS011;1209;48.410;9.054;2022-11-20T05:24:15;2.03;;;1.93;;
2396;SDS011;1209;48.410;9.054;2022-11-20T05:26:40;1.67;;;1.67;;
2396;SDS011;1209;48.410;9.054;2022-11-20T05:29:05;2.10;;;1.90;;
2396;SDS011;1209;48.410;9.054;2022-11-20T05:31:31;1.87;;;1.63;;
2396;SDS011;1209;48.410;9.054;2022-11-20T05:33:56;2.17;;;2.07;;
2396;SDS011;1209;48.410;9.054;2022-11-20T05:36:22;1.90;;;1.80;;
2396;SDS011;1209;48.410;9.054;2022-11-20T05:38:47;1.63;;;1.53;;
2396;SDS011;1209;48.410;9.054;2022-11-20T05:41:14;1.43;;;1.33;;
2396;SDS011;1209;48.410;9.054;2022-11-20T05:43:42;3.35;;;1.83;;
2396;SDS011;1209;48.410;9.054;2022-11-20T05:46:11;1.67;;;1.58;;
2396;SDS011;1209;48.410;9.054;2022-11-20T05:48:37;2.08;;;1.88;;
2396;SDS011;1209;48.410;9.054;2022-11-20T05:51:04;1.70;;;1.60;;
2396;SDS011;1209;48.410;9.054;2022-11-20T05:53:31;1.50;;;1.40;;
2396;SDS011;1209;48.410;9.054;2022-11-20T05:56:01;1.95;;;1.48;;
2396;SDS011;1209;48.410;9.054;2022-11-20T05:58:28;1.42;;;1.33;;
2396;SDS011;1209;48.410;9.054;2022-11-20T06:00:55;1.98;;;1.88;;
2396;SDS011;1209;48.410;9.054;2022-11-20T06:03:30;1.95;;;1.77;;
2396;SDS011;1209;48.410;9.054;2022-11-20T06:05:55;1.70;;;1.60;;
2396;SDS011;1209;48.410;9.054;2022-11-20T06:08:21;1.90;;;1.80;;
2396;SDS011;1209;48.410;9.054;2022-11-20T06:10:46;1.53;;;1.30;;
2396;SDS011;1209;48.410;9.054;2022-11-20T06:13:11;1.53;;;1.50;;
2396;SDS011;1209;48.410;9.054;2022-11-20T06:15:37;2.00;;;1.30;;
2396;SDS011;1209;48.410;9.054;2022-11-20T06:18:02;1.87;;;1.77;;
2396;SDS011;1209;48.410;9.054;2022-11-20T06:20:27;1.80;;;1.70;;
2396;SDS011;1209;48.410;9.054;2022-11-20T06:22:53;5.83;;;1.20;;
2396;SDS011;1209;48.410;9.054;2022-11-20T06:25:18;1.73;;;1.67;;
2396;SDS011;1209;48.410;9.054;2022-11-20T06:27:43;1.57;;;1.47;;
2396;SDS011;1209;48.410;9.054;2022-11-20T06:30:09;1.50;;;1.40;;
2396;SDS011;1209;48.410;9.054;2022-11-20T06:32:34;1.77;;;1.67;;
2396;SDS011;1209;48.410;9.054;2022-11-20T06:35:00;1.40;;;1.30;;
2396;SDS011;1209;48.410;9.054;2022-11-20T06:37:25;1.23;;;1.23;;
2396;SDS011;1209;48.410;9.054;2022-11-20T06:39:50;1.80;;;1.63;;
2396;SDS011;1209;48.410;9.054;2022-11-20T06:42:16;4.20;;;1.37;;
2396;SDS011;1209;48.410;9.054;2022-11-20T06:44:41;2.57;;;1.40;;
2396;SDS011;1209;48.410;9.054;2022-11-20T06:47:06;1.27;;;1.27;;
2396;SDS011;1209;48.410;9.054;2022-11-20T06:49:32;1.60;;;1.50;;
2396;SDS011;1209;48.410;9.054;2022-11-20T06:51:59;2.75;;;1.85;;
2396;SDS011;1209;48.410;9.054;2022-11-20T06:54:24;1.90;;;1.80;;
2396;SDS011;1209;48.410;9.054;2022-11-20T06:56:49;1.43;;;1.33;;
2396;SDS011;1209;48.410;9.054;2022-11-20T06:59:15;1.67;;;1.57;;
2396;SDS011;1209;48.410;9.054;2022-11-20T07:01:40;1.60;;;1.50;;
2396;SDS011;1209;48.410;9.054;2022-11-20T07:04:05;1.83;;;1.73;;
2396;SDS011;1209;48.410;9.054;2022-11-20T07:06:31;7.20;;;3.83;;
2396;SDS011;1209;48.410;9.054;2022-11-20T07:08:56;1.40;;;1.30;;
2396;SDS011;1209;48.410;9.054;2022-11-20T07:11:22;1.20;;;1.20;;
2396;SDS011;1209;48.410;9.054;2022-11-20T07:13:48;1.57;;;1.47;;
2396;SDS011;1209;48.410;9.054;2022-11-20T07:16:14;1.80;;;1.70;;
2396;SDS011;1209;48.410;9.054;2022-11-20T07:18:39;1.33;;;1.10;;
2396;SDS011;1209;48.410;9.054;2022-11-20T07:21:05;1.73;;;1.63;;
2396;SDS011;1209;48.410;9.054;2022-11-20T07:23:33;1.42;;;1.38;;
2396;SDS011;1209;48.410;9.054;2022-11-20T07:26:02;1.10;;;1.10;;
2396;SDS011;1209;48.410;9.054;2022-11-20T07:28:29;3.05;;;1.52;;
2396;SDS011;1209;48.410;9.054;2022-11-20T07:30:54;1.40;;;1.37;;
2396;SDS011;1209;48.410;9.054;2022-11-20T07:33:20;2.20;;;1.67;;
2396;SDS011;1209;48.410;9.054;2022-11-20T07:35:45;1.50;;;1.40;;
2396;SDS011;1209;48.410;9.054;2022-11-20T07:38:11;1.73;;;1.63;;
2396;SDS011;1209;48.410;9.054;2022-11-20T07:40:36;1.60;;;1.57;;
2396;SDS011;1209;48.410;9.054;2022-11-20T07:43:01;1.00;;;0.93;;
2396;SDS011;1209;48.410;9.054;2022-11-20T07:45:27;1.37;;;1.30;;
2396;SDS011;1209;48.410;9.054;2022-11-20T07:47:52;1.53;;;1.30;;
2396;SDS011;1209;48.410;9.054;2022-11-20T07:50:18;1.50;;;1.40;;
2396;SDS011;1209;48.410;9.054;2022-11-20T07:52:44;1.23;;;1.23;;
2396;SDS011;1209;48.410;9.054;2022-11-20T07:55:10;1.33;;;1.30;;
2396;SDS011;1209;48.410;9.054;2022-11-20T07:57:36;1.00;;;1.00;;
2396;SDS011;1209;48.410;9.054;2022-11-20T08:00:02;1.30;;;1.20;;
2396;SDS011;1209;48.410;9.054;2022-11-20T08:02:29;1.30;;;1.30;;
2396;SDS011;1209;48.410;9.054;2022-11-20T08:04:54;1.83;;;1.23;;
2396;SDS011;1209;48.410;9.054;2022-11-20T08:07:20;1.27;;;1.20;;
2396;SDS011;1209;48.410;9.054;2022-11-20T08:09:45;0.90;;;0.90;;
2396;SDS011;1209;48.410;9.054;2022-11-20T08:12:17;1.40;;;1.40;;
2396;SDS011;1209;48.410;9.054;2022-11-20T08:15:22;0.82;;;0.82;;
2396;SDS011;1209;48.410;9.054;2022-11-20T08:17:47;1.33;;;1.23;;
2396;SDS011;1209;48.410;9.054;2022-11-20T08:20:12;1.20;;;1.20;;
2396;SDS011;1209;48.410;9.054;2022-11-20T08:22:38;1.03;;;1.03;;
2396;SDS011;1209;48.410;9.054;2022-11-20T08:25:03;2.03;;;1.40;;
2396;SDS011;1209;48.410;9.054;2022-11-20T08:27:31;1.23;;;1.13;;
2396;SDS011;1209;48.410;9.054;2022-11-20T08:29:56;1.20;;;1.20;;
2396;SDS011;1209;48.410;9.054;2022-11-20T08:32:22;1.40;;;1.30;;
2396;SDS011;1209;48.410;9.054;2022-11-20T08:34:47;0.80;;;0.80;;
2396;SDS011;1209;48.410;9.054;2022-11-20T08:37:12;1.30;;;1.30;;
2396;SDS011;1209;48.410;9.054;2022-11-20T08:39:37;5.30;;;2.23;;
2396;SDS011;1209;48.410;9.054;2022-11-20T08:42:07;0.97;;;0.97;;
2396;SDS011;1209;48.410;9.054;2022-11-20T08:44:33;0.82;;;0.82;;
2396;SDS011;1209;48.410;9.054;2022-11-20T08:46:58;3.70;;;1.83;;
2396;SDS011;1209;48.410;9.054;2022-11-20T08:49:25;0.88;;;0.88;;
2396;SDS011;1209;48.410;9.054;2022-11-20T08:51:50;0.93;;;0.93;;
2396;SDS011;1209;48.410;9.054;2022-11-20T08:54:18;1.30;;;1.20;;
2396;SDS011;1209;48.410;9.054;2022-11-20T08:56:46;1.25;;;1.15;;
2396;SDS011;1209;48.410;9.054;2022-11-20T08:59:12;2.43;;;1.10;;
2396;SDS011;1209;48.410;9.054;2022-11-20T09:01:37;0.97;;;0.97;;
2396;SDS011;1209;48.410;9.054;2022-11-20T09:04:02;1.30;;;1.20;;
2396;SDS011;1209;48.410;9.054;2022-11-20T09:06:29;1.23;;;1.17;;
2396;SDS011;1209;48.410;9.054;2022-11-20T09:08:55;1.10;;;1.07;;
2396;SDS011;1209;48.410;9.054;2022-11-20T09:11:21;1.38;;;1.20;;
2396;SDS011;1209;48.410;9.054;2022-11-20T09:13:47;1.40;;;1.30;;
2396;SDS011;1209;48.410;9.054;2022-11-20T09:16:12;1.60;;;1.50;;
2396;SDS011;1209;48.410;9.054;2022-11-20T09:18:38;1.50;;;1.40;;
2396;SDS011;1209;48.410;9.054;2022-11-20T09:21:10;2.10;;;1.87;;
2396;SDS011;1209;48.410;9.054;2022-11-20T09:23:37;1.60;;;1.50;;
2396;SDS011;1209;48.410;9.054;2022-11-20T09:26:04;1.42;;;1.40;;
2396;SDS011;1209;48.410;9.054;2022-11-20T09:28:30;3.90;;;1.30;;
2396;SDS011;1209;48.410;9.054;2022-11-20T09:30:56;1.40;;;1.30;;
2396;SDS011;1209;48.410;9.054;2022-11-20T09:33:21;1.20;;;1.20;;
2396;SDS011;1209;48.410;9.054;2022-11-20T09:35:47;4.03;;;3.30;;
2396;SDS011;1209;48.410;9.054;2022-11-20T09:38:12;1.40;;;1.17;;
2396;SDS011;1209;48.410;9.054;2022-11-20T09:40:39;1.10;;;1.10;;
2396;SDS011;1209;48.410;9.054;2022-11-20T09:43:12;1.55;;;1.30;;
2396;SDS011;1209;48.410;9.054;2022-11-20T09:51:57;1.20;;;1.20;;
2396;SDS011;1209;48.410;9.054;2022-11-20T09:54:35;0.95;;;0.95;;
2396;SDS011;1209;48.410;9.054;2022-11-20T09:57:11;1.50;;;1.40;;
2396;SDS011;1209;48.410;9.054;2022-11-20T09:59:42;1.20;;;1.10;;
2396;SDS011;1209;48.410;9.054;2022-11-20T10:02:15;1.08;;;1.08;;
2396;SDS011;1209;48.410;9.054;2022-11-20T10:04:53;1.48;;;1.38;;
2396;SDS011;1209;48.410;9.054;2022-11-20T10:07:22;6.60;;;3.65;;
2396;SDS011;1209;48.410;9.054;2022-11-20T10:09:59;3.35;;;2.28;;
2396;SDS011;1209;48.410;9.054;2022-11-20T10:12:40;1.20;;;1.20;;
2396;SDS011;1209;48.410;9.054;2022-11-20T10:29:10;1.50;;;1.40;;
2396;SDS011;1209;48.410;9.054;2022-11-20T10:31:37;1.40;;;1.30;;
2396;SDS011;1209;48.410;9.054;2022-11-20T10:34:06;1.08;;;1.08;;
2396;SDS011;1209;48.410;9.054;2022-11-20T10:36:44;1.90;;;1.80;;
2396;SDS011;1209;48.410;9.054;2022-11-20T10:39:27;1.30;;;1.23;;
2396;SDS011;1209;48.410;9.054;2022-11-20T10:41:53;2.30;;;1.52;;
2396;SDS011;1209;48.410;9.054;2022-11-20T10:44:20;1.30;;;1.00;;
2396;SDS011;1209;48.410;9.054;2022-11-20T10:47:11;1.65;;;1.55;;
2396;SDS011;1209;48.410;9.054;2022-11-20T10:49:39;2.50;;;1.90;;
2396;SDS011;1209;48.410;9.054;2022-11-20T11:00:17;1.05;;;1.00;;
2396;SDS011;1209;48.410;9.054;2022-11-20T11:02:52;1.30;;;1.27;;
2396;SDS011;1209;48.410;9.054;2022-11-20T11:06:02;1.40;;;1.30;;
2396;SDS011;1209;48.410;9.054;2022-11-20T11:08:14;1.23;;;1.17;;
2396;SDS011;1209;48.410;9.054;2022-11-20T11:13:48;1.27;;;1.27;;
2396;SDS011;1209;48.410;9.054;2022-11-20T11:16:25;1.13;;;1.03;;
2396;SDS011;1209;48.410;9.054;2022-11-20T11:18:51;1.17;;;1.08;;
2396;SDS011;1209;48.410;9.054;2022-11-20T11:21:24;1.00;;;1.00;;
2396;SDS011;1209;48.410;9.054;2022-11-20T11:24:00;2.55;;;2.35;;
2396;SDS011;1209;48.410;9.054;2022-11-20T11:26:28;1.52;;;1.40;;
2396;SDS011;1209;48.410;9.054;2022-11-20T11:29:00;2.00;;;1.80;;
2396;SDS011;1209;48.410;9.054;2022-11-20T11:31:29;1.10;;;1.10;;
2396;SDS011;1209;48.410;9.054;2022-11-20T11:34:12;1.00;;;1.00;;
2396;SDS011;1209;48.410;9.054;2022-11-20T11:36:40;0.98;;;0.98;;
2396;SDS011;1209;48.410;9.054;2022-11-20T11:39:08;1.52;;;1.42;;
2396;SDS011;1209;48.410;9.054;2022-11-20T11:41:38;1.30;;;1.20;;
2396;SDS011;1209;48.410;9.054;2022-11-20T11:44:17;1.35;;;1.25;;
2396;SDS011;1209;48.410;9.054;2022-11-20T11:47:04;1.42;;;1.33;;
2396;SDS011;1209;48.410;9.054;2022-11-20T11:49:34;1.80;;;1.70;;
2396;SDS011;1209;48.410;9.054;2022-11-20T11:52:02;1.57;;;1.53;;
2396;SDS011;1209;48.410;9.054;2022-11-20T11:57:59;1.30;;;1.30;;
2396;SDS011;1209;48.410;9.054;2022-11-20T12:00:26;1.27;;;1.17;;
2396;SDS011;1209;48.410;9.054;2022-11-20T12:02:54;1.90;;;1.40;;
2396;SDS011;1209;48.410;9.054;2022-11-20T12:05:44;1.40;;;1.30;;
2396;SDS011;1209;48.410;9.054;2022-11-20T12:13:39;1.60;;;1.50;;
2396;SDS011;1209;48.410;9.054;2022-11-20T12:16:07;1.23;;;1.20;;
2396;SDS011;1209;48.410;9.054;2022-11-20T12:18:38;1.50;;;1.40;;
2396;SDS011;1209;48.410;9.054;2022-11-20T12:24:02;4.57;;;1.70;;
2396;SDS011;1209;48.410;9.054;2022-11-20T12:32:19;1.80;;;1.70;;
2396;SDS011;1209;48.410;9.054;2022-11-20T12:34:51;1.10;;;1.10;;
2396;SDS011;1209;48.410;9.054;2022-11-20T12:37:33;1.70;;;1.23;;
2396;SDS011;1209;48.410;9.054;2022-11-20T12:43:16;1.57;;;1.40;;
2396;SDS011;1209;48.410;9.054;2022-11-20T12:54:35;1.73;;;1.63;;
2396;SDS011;1209;48.410;9.054;2022-11-20T12:59:56;3.07;;;1.10;;
2396;SDS011;1209;48.410;9.054;2022-11-20T13:05:21;1.00;;;1.00;;
2396;SDS011;1209;48.410;9.054;2022-11-20T13:07:54;0.90;;;0.90;;
2396;SDS011;1209;48.410;9.054;2022-11-20T13:10:22;1.57;;;1.47;;
2396;SDS011;1209;48.410;9.054;2022-11-20T13:18:44;1.40;;;1.30;;
2396;SDS011;1209;48.410;9.054;2022-11-20T13:21:34;1.30;;;1.20;;
2396;SDS011;1209;48.410;9.054;2022-11-20T13:24:18;1.30;;;1.20;;
2396;SDS011;1209;48.410;9.054;2022-11-20T13:26:45;1.33;;;1.00;;
2396;SDS011;1209;48.410;9.054;2022-11-20T13:29:12;1.00;;;1.00;;
2396;SDS011;1209;48.410;9.054;2022-11-20T13:31:43;1.50;;;1.40;;
2396;SDS011;1209;48.410;9.054;2022-11-20T13:34:11;1.50;;;1.40;;
2396;SDS011;1209;48.410;9.054;2022-11-20T13:36:48;1.10;;;1.00;;
2396;SDS011;1209;48.410;9.054;2022-11-20T13:39:28;1.95;;;1.83;;
2396;SDS011;1209;48.410;9.054;2022-11-20T13:41:56;2.20;;;1.23;;
2396;SDS011;1209;48.410;9.054;2022-11-20T13:47:02;1.10;;;1.10;;
2396;SDS011;1209;48.410;9.054;2022-11-20T13:49:30;0.90;;;0.90;;
2396;SDS011;1209;48.410;9.054;2022-11-20T14:00:44;1.20;;;1.20;;
2396;SDS011;1209;48.410;9.054;2022-11-20T14:03:17;2.40;;;1.10;;
2396;SDS011;1209;48.410;9.054;2022-11-20T14:05:48;1.10;;;1.10;;
2396;SDS011;1209;48.410;9.054;2022-11-20T14:08:27;1.97;;;1.40;;
2396;SDS011;1209;48.410;9.054;2022-11-20T14:11:19;1.93;;;1.30;;
2396;SDS011;1209;48.410;9.054;2022-11-20T14:16:33;1.77;;;1.67;;
2396;SDS011;1209;48.410;9.054;2022-11-20T14:21:51;3.43;;;1.70;;
2396;SDS011;1209;48.410;9.054;2022-11-20T14:24:32;1.27;;;1.23;;
2396;SDS011;1209;48.410;9.054;2022-11-20T14:26:57;2.03;;;1.50;;
2396;SDS011;1209;48.410;9.054;2022-11-20T14:29:25;1.30;;;1.00;;
2396;SDS011;1209;48.410;9.054;2022-11-20T14:31:53;1.00;;;1.00;;
2396;SDS011;1209;48.410;9.054;2022-11-20T14:34:30;1.00;;;0.90;;
2396;SDS011;1209;48.410;9.054;2022-11-20T14:37:01;1.70;;;1.20;;
2396;SDS011;1209;48.410;9.054;2022-11-20T14:39:30;1.30;;;1.30;;
2396;SDS011;1209;48.410;9.054;2022-11-20T14:41:58;0.97;;;0.97;;
2396;SDS011;1209;48.410;9.054;2022-11-20T14:44:25;1.20;;;1.20;;
2396;SDS011;1209;48.410;9.054;2022-11-20T14:46:53;1.37;;;1.27;;
2396;SDS011;1209;48.410;9.054;2022-11-20T14:49:20;2.20;;;1.17;;
2396;SDS011;1209;48.410;9.054;2022-11-20T14:51:46;1.50;;;1.40;;
2396;SDS011;1209;48.410;9.054;2022-11-20T14:56:39;2.23;;;1.90;;
2396;SDS011;1209;48.410;9.054;2022-11-20T14:59:04;1.83;;;1.73;;
2396;SDS011;1209;48.410;9.054;2022-11-20T15:01:30;2.00;;;1.30;;
2396;SDS011;1209;48.410;9.054;2022-11-20T15:04:01;2.70;;;1.97;;
2396;SDS011;1209;48.410;9.054;2022-11-20T15:06:27;3.43;;;2.30;;
2396;SDS011;1209;48.410;9.054;2022-11-20T15:08:54;1.87;;;1.73;;
2396;SDS011;1209;48.410;9.054;2022-11-20T15:11:29;3.17;;;2.13;;
2396;SDS011;1209;48.410;9.054;2022-11-20T15:13:56;2.23;;;1.57;;
2396;SDS011;1209;48.410;9.054;2022-11-20T15:16:26;1.40;;;1.30;;
2396;SDS011;1209;48.410;9.054;2022-11-20T15:18:52;2.10;;;1.50;;
2396;SDS011;1209;48.410;9.054;2022-11-20T15:21:18;2.63;;;1.80;;
2396;SDS011;1209;48.410;9.054;2022-11-20T15:23:45;3.80;;;2.40;;
2396;SDS011;1209;48.410;9.054;2022-11-20T15:26:11;3.80;;;1.50;;
2396;SDS011;1209;48.410;9.054;2022-11-20T15:28:39;1.43;;;1.33;;
2396;SDS011;1209;48.410;9.054;2022-11-20T15:31:12;2.33;;;2.10;;
2396;SDS011;1209;48.410;9.054;2022-11-20T15:33:40;1.80;;;1.53;;
2396;SDS011;1209;48.410;9.054;2022-11-20T15:36:05;2.63;;;2.00;;
2396;SDS011;1209;48.410;9.054;2022-11-20T15:38:30;5.00;;;3.93;;
2396;SDS011;1209;48.410;9.054;2022-11-20T15:40:56;4.63;;;3.10;;
2396;SDS011;1209;48.410;9.054;2022-11-20T15:43:22;3.13;;;1.90;;
2396;SDS011;1209;48.410;9.054;2022-11-20T15:45:51;2.73;;;1.60;;
2396;SDS011;1209;48.410;9.054;2022-11-20T15:53:36;1.75;;;1.65;;
2396;SDS011;1209;48.410;9.054;2022-11-20T15:56:02;1.90;;;1.73;;
2396;SDS011;1209;48.410;9.054;2022-11-20T15:58:28;1.70;;;1.60;;
2396;SDS011;1209;48.410;9.054;2022-11-20T16:00:53;2.27;;;2.07;;
2396;SDS011;1209;48.410;9.054;2022-11-20T16:03:19;2.60;;;1.53;;
2396;SDS011;1209;48.410;9.054;2022-11-20T16:05:44;3.27;;;1.50;;
2396;SDS011;1209;48.410;9.054;2022-11-20T16:08:10;1.63;;;1.53;;
2396;SDS011;1209;48.410;9.054;2022-11-20T16:10:35;5.40;;;1.77;;
2396;SDS011;1209;48.410;9.054;2022-11-20T16:13:01;1.80;;;1.60;;
2396;SDS011;1209;48.410;9.054;2022-11-20T16:15:52;1.80;;;1.70;;
2396;SDS011;1209;48.410;9.054;2022-11-20T16:18:21;1.80;;;1.70;;
2396;SDS011;1209;48.410;9.054;2022-11-20T16:20:53;4.07;;;2.03;;
2396;SDS011;1209;48.410;9.054;2022-11-20T16:23:19;2.95;;;2.10;;
2396;SDS011;1209;48.410;9.054;2022-11-20T16:25:45;2.13;;;1.90;;
2396;SDS011;1209;48.410;9.054;2022-11-20T16:28:11;2.40;;;2.20;;
2396;SDS011;1209;48.410;9.054;2022-11-20T16:30:37;2.90;;;2.70;;
2396;SDS011;1209;48.410;9.054;2022-11-20T16:33:03;2.60;;;2.07;;
2396;SDS011;1209;48.410;9.054;2022-11-20T16:35:29;2.13;;;2.03;;
2396;SDS011;1209;48.410;9.054;2022-11-20T16:37:55;2.95;;;2.03;;
2396;SDS011;1209;48.410;9.054;2022-11-20T16:40:21;3.08;;;2.20;;
2396;SDS011;1209;48.410;9.054;2022-11-20T16:42:48;2.30;;;1.70;;
2396;SDS011;1209;48.410;9.054;2022-11-20T16:45:13;2.00;;;1.53;;
2396;SDS011;1209;48.410;9.054;2022-11-20T16:47:39;5.18;;;1.90;;
2396;SDS011;1209;48.410;9.054;2022-11-20T16:50:05;2.57;;;2.33;;
2396;SDS011;1209;48.410;9.054;2022-11-20T16:52:31;1.77;;;1.63;;
2396;SDS011;1209;48.410;9.054;2022-11-20T16:54:56;2.33;;;2.13;;
2396;SDS011;1209;48.410;9.054;2022-11-20T16:57:22;1.83;;;1.37;;
2396;SDS011;1209;48.410;9.054;2022-11-20T16:59:47;1.87;;;1.73;;
2396;SDS011;1209;48.410;9.054;2022-11-20T17:02:13;2.20;;;2.03;;